createdAt,value
2022-10-18T00:01:04.514Z,9.15
2022-10-18T00:03:33.201Z,9.73
2022-10-18T00:06:01.075Z,8.60
2022-10-18T00:08:29.997Z,8.30
2022-10-18T00:10:57.812Z,8.93
2022-10-18T00:13:26.856Z,8.30
2022-10-18T00:15:59.388Z,8.50
2022-10-18T00:18:28.212Z,8.13
2022-10-18T00:21:01.643Z,7.97
2022-10-18T00:23:31.244Z,8.60
2022-10-18T00:26:18.774Z,7.97
2022-10-18T00:28:50.234Z,8.27
2022-10-18T00:33:52.101Z,7.22
2022-10-18T00:36:20.982Z,7.03
2022-10-18T00:38:49.346Z,8.48
2022-10-18T00:41:24.244Z,7.90
2022-10-18T00:44:04.242Z,7.50
2022-10-18T00:46:41.025Z,7.53
2022-10-18T00:49:25.106Z,8.20
2022-10-18T00:51:59.795Z,7.88
2022-10-18T00:54:31.117Z,7.38
2022-10-18T00:56:59.291Z,8.10
2022-10-18T00:59:27.380Z,7.85
2022-10-18T01:01:54.856Z,8.07
2022-10-18T01:04:22.464Z,7.30
2022-10-18T01:07:41.623Z,7.85
2022-10-18T01:11:03.557Z,7.38
2022-10-18T01:14:17.727Z,7.82
2022-10-18T01:16:59.118Z,8.15
2022-10-18T01:19:47.693Z,7.03
2022-10-18T01:22:31.446Z,7.53
2022-10-18T01:25:27.126Z,7.43
2022-10-18T01:28:15.788Z,8.43
2022-10-18T01:30:55.909Z,7.95
2022-10-18T01:33:49.239Z,8.75
2022-10-18T01:36:30.597Z,9.25
2022-10-18T01:39:05.715Z,8.55
2022-10-18T01:41:37.567Z,7.70
2022-10-18T01:44:11.386Z,7.97
2022-10-18T01:46:41.257Z,7.80
2022-10-18T01:49:08.792Z,7.90
2022-10-18T01:51:36.257Z,7.28
2022-10-18T01:54:03.730Z,7.45
2022-10-18T01:57:12.256Z,6.95
2022-10-18T01:59:54.744Z,7.00
2022-10-18T02:02:39.028Z,7.57
2022-10-18T02:05:33.074Z,7.57
2022-10-18T02:08:27.951Z,7.75
2022-10-18T02:11:05.453Z,7.25
2022-10-18T02:13:59.623Z,7.40
2022-10-18T02:16:40.601Z,8.70
2022-10-18T02:19:40.402Z,8.20
2022-10-18T02:22:11.387Z,8.60
2022-10-18T02:24:48.232Z,7.35
2022-10-18T02:27:15.845Z,8.20
2022-10-18T02:29:45.267Z,7.18
2022-10-18T02:32:27.415Z,6.85
2022-10-18T02:35:06.981Z,7.50
2022-10-18T02:37:39.779Z,9.15
2022-10-18T02:40:10.131Z,8.30
2022-10-18T02:42:44.309Z,8.52
2022-10-18T02:45:13.153Z,8.68
2022-10-18T02:47:40.616Z,9.13
2022-10-18T02:50:09.131Z,8.57
2022-10-18T02:52:36.802Z,8.30
2022-10-18T02:55:04.989Z,8.35
2022-10-18T02:57:32.852Z,9.48
2022-10-18T03:00:00.557Z,9.57
2022-10-18T03:02:27.933Z,9.88
2022-10-18T03:04:55.302Z,8.35
2022-10-18T03:07:22.731Z,8.93
2022-10-18T03:09:50.075Z,8.73
2022-10-18T03:12:17.547Z,8.93
2022-10-18T03:14:44.941Z,9.13
2022-10-18T03:17:12.363Z,9.82
2022-10-18T03:19:39.796Z,9.32
2022-10-18T03:22:07.236Z,9.70
2022-10-18T03:24:34.627Z,9.93
2022-10-18T03:27:02.386Z,8.93
2022-10-18T03:29:29.782Z,10.02
2022-10-18T03:31:57.191Z,10.32
2022-10-18T03:34:24.573Z,10.23
2022-10-18T03:36:51.929Z,9.20
2022-10-18T03:39:19.349Z,10.27
2022-10-18T03:41:46.723Z,9.63
2022-10-18T03:44:14.068Z,9.65
2022-10-18T03:46:41.628Z,11.07
2022-10-18T03:49:08.985Z,10.13
2022-10-18T03:51:36.373Z,11.02
2022-10-18T03:54:04.000Z,11.00
2022-10-18T03:56:31.374Z,10.95
2022-10-18T03:58:58.759Z,11.80
2022-10-18T04:01:26.394Z,11.25
2022-10-18T04:03:53.822Z,12.13
2022-10-18T04:06:21.199Z,11.60
2022-10-18T04:08:48.536Z,11.35
2022-10-18T04:11:15.896Z,10.73
2022-10-18T04:13:43.307Z,12.95
2022-10-18T04:16:10.649Z,13.55
2022-10-18T04:18:38.254Z,13.60
2022-10-18T04:21:05.817Z,12.00
2022-10-18T04:23:36.340Z,11.35
2022-10-18T04:26:07.561Z,11.88
2022-10-18T04:28:39.838Z,12.23
2022-10-18T04:31:07.447Z,13.02
2022-10-18T04:33:35.331Z,14.15
2022-10-18T04:36:02.889Z,15.00
2022-10-18T04:38:30.417Z,17.90
2022-10-18T04:40:57.845Z,15.13
2022-10-18T04:43:25.231Z,15.30
2022-10-18T04:45:52.609Z,16.98
2022-10-18T04:48:20.497Z,17.42
2022-10-18T04:50:50.078Z,17.50
2022-10-18T04:53:19.163Z,20.05
2022-10-18T04:55:49.432Z,19.15
2022-10-18T04:58:18.593Z,19.65
2022-10-18T05:00:47.657Z,20.05
2022-10-18T05:03:15.824Z,18.27
2022-10-18T05:06:00.700Z,25.58
2022-10-18T05:08:30.680Z,22.23
2022-10-18T05:10:58.513Z,20.02
2022-10-18T05:13:26.488Z,18.48
2022-10-18T05:15:53.913Z,20.60
2022-10-18T05:18:21.616Z,19.10
2022-10-18T05:20:48.999Z,17.23
2022-10-18T05:23:16.368Z,21.73
2022-10-18T05:25:44.151Z,18.85
2022-10-18T05:28:38.799Z,19.45
2022-10-18T05:31:07.217Z,20.42
2022-10-18T05:33:34.947Z,22.65
2022-10-18T05:36:02.331Z,21.08
2022-10-18T05:38:32.687Z,22.42
2022-10-18T05:41:04.304Z,21.15
2022-10-18T05:45:58.970Z,19.27
2022-10-18T05:48:26.644Z,19.40
2022-10-18T05:50:54.088Z,20.60
2022-10-18T05:53:37.743Z,23.00
2022-10-18T05:56:07.186Z,19.67
2022-10-18T05:58:35.378Z,21.73
2022-10-18T06:01:05.464Z,22.15
2022-10-18T06:03:34.223Z,20.33
2022-10-18T06:06:08.334Z,19.23
2022-10-18T06:08:37.511Z,18.50
2022-10-18T06:11:14.031Z,19.75
2022-10-18T06:13:47.866Z,19.90
2022-10-18T06:16:18.403Z,21.38
2022-10-18T06:18:55.065Z,19.95
2022-10-18T06:21:25.033Z,19.60
2022-10-18T06:23:57.267Z,21.85
2022-10-18T06:26:26.585Z,19.00
2022-10-18T06:28:54.200Z,20.55
2022-10-18T06:31:21.728Z,21.42
2022-10-18T06:33:49.263Z,23.25
2022-10-18T06:36:24.176Z,21.42
2022-10-18T06:38:51.879Z,25.50
2022-10-18T06:41:19.649Z,23.58
2022-10-18T06:43:53.351Z,23.42
2022-10-18T06:46:24.474Z,23.23
2022-10-18T06:48:52.089Z,23.88
2022-10-18T06:51:20.014Z,22.63
2022-10-18T06:54:05.856Z,22.33
2022-10-18T06:56:35.758Z,24.38
2022-10-18T06:59:04.225Z,22.50
2022-10-18T07:01:32.600Z,23.80
2022-10-18T07:04:00.056Z,21.75
2022-10-18T07:06:27.683Z,22.45
2022-10-18T07:08:55.168Z,21.00
2022-10-18T07:11:26.135Z,21.23
2022-10-18T07:14:00.762Z,20.88
2022-10-18T07:16:28.446Z,21.30
2022-10-18T07:18:55.773Z,23.63
2022-10-18T07:21:25.864Z,21.83
2022-10-18T07:23:54.439Z,20.40
2022-10-18T07:26:32.148Z,22.85
2022-10-18T07:29:09.694Z,22.20
2022-10-18T07:31:40.944Z,23.85
2022-10-18T07:34:12.933Z,23.92
2022-10-18T07:36:40.905Z,22.55
2022-10-18T07:39:09.240Z,22.77
2022-10-18T07:41:37.053Z,23.50
2022-10-18T07:44:04.630Z,22.45
2022-10-18T07:46:32.380Z,23.23
2022-10-18T07:48:59.731Z,22.50
2022-10-18T07:51:28.156Z,23.63
2022-10-18T07:53:55.491Z,22.88
2022-10-18T07:56:23.256Z,23.70
2022-10-18T07:58:54.140Z,23.88
2022-10-18T08:01:24.072Z,22.48
2022-10-18T08:03:52.729Z,24.05
2022-10-18T08:06:22.734Z,22.92
2022-10-18T08:08:50.534Z,21.13
2022-10-18T08:11:22.221Z,21.50
2022-10-18T08:16:26.507Z,24.00
2022-10-18T08:18:57.066Z,25.92
2022-10-18T08:21:24.523Z,26.98
2022-10-18T08:23:53.708Z,26.42
2022-10-18T08:26:23.544Z,27.75
2022-10-18T08:29:10.251Z,28.77
2022-10-18T08:31:37.979Z,30.13
2022-10-18T08:34:05.320Z,29.42
2022-10-18T08:36:33.006Z,30.80
2022-10-18T08:39:00.357Z,26.90
2022-10-18T08:41:36.952Z,27.15
2022-10-18T08:44:24.853Z,28.42
2022-10-18T08:47:02.473Z,26.65
2022-10-18T08:49:46.322Z,27.20
2022-10-18T08:52:35.450Z,26.10
2022-10-18T08:55:15.880Z,26.73
2022-10-18T08:57:43.584Z,24.83
2022-10-18T09:00:20.280Z,25.50
2022-10-18T09:03:07.142Z,24.33
2022-10-18T09:05:52.417Z,23.63
2022-10-18T09:08:46.579Z,23.40
2022-10-18T09:11:42.914Z,22.25
2022-10-18T09:15:03.665Z,23.63
2022-10-18T09:18:30.937Z,22.88
2022-10-18T09:21:22.765Z,21.85
2022-10-18T09:26:49.885Z,19.95
2022-10-18T09:29:51.954Z,20.42
2022-10-18T09:35:18.188Z,20.55
2022-10-18T09:37:47.348Z,19.67
2022-10-18T09:40:29.924Z,18.95
2022-10-18T09:43:08.044Z,19.30
2022-10-18T09:45:41.427Z,18.83
2022-10-18T09:48:28.244Z,20.02
2022-10-18T09:51:12.081Z,19.02
2022-10-18T09:54:15.746Z,18.08
2022-10-18T09:57:09.786Z,16.83
2022-10-18T09:59:43.152Z,17.98
2022-10-18T10:02:22.141Z,15.98
2022-10-18T10:04:51.872Z,15.18
2022-10-18T10:07:28.640Z,14.32
2022-10-18T10:10:07.438Z,14.35
2022-10-18T10:12:38.806Z,14.77
2022-10-18T10:15:28.190Z,13.98
2022-10-18T10:18:17.589Z,15.23
2022-10-18T10:20:53.920Z,11.95
2022-10-18T10:23:44.424Z,10.27
2022-10-18T10:26:28.989Z,12.00
2022-10-18T10:28:56.675Z,9.38
2022-10-18T10:31:29.344Z,10.80
2022-10-18T10:34:03.537Z,10.48
2022-10-18T10:36:33.510Z,9.43
2022-10-18T10:39:18.862Z,8.82
2022-10-18T10:41:56.611Z,8.38
2022-10-18T10:44:29.125Z,8.10
2022-10-18T10:46:57.824Z,6.43
2022-10-18T10:49:47.680Z,4.75
2022-10-18T10:52:29.033Z,3.22
2022-10-18T10:55:17.037Z,2.53
2022-10-18T10:57:52.200Z,3.20
2022-10-18T11:00:43.958Z,2.83
2022-10-18T11:03:28.947Z,2.95
2022-10-18T11:06:00.627Z,2.25
2022-10-18T11:08:40.938Z,2.77
2022-10-18T11:11:33.579Z,4.00
2022-10-18T11:14:26.582Z,3.90
2022-10-18T11:17:22.862Z,3.30
2022-10-18T11:20:11.768Z,3.70
2022-10-18T11:23:01.109Z,3.90
2022-10-18T11:25:48.649Z,2.83
2022-10-18T11:28:34.707Z,2.38
2022-10-18T11:31:17.653Z,2.35
2022-10-18T11:34:28.269Z,2.08
2022-10-18T11:37:42.155Z,3.10
2022-10-18T11:40:40.339Z,3.00
2022-10-18T11:44:02.153Z,2.85
2022-10-18T11:47:28.010Z,3.00
2022-10-18T11:50:26.164Z,3.03
2022-10-18T11:53:27.251Z,2.17
2022-10-18T11:56:36.875Z,2.37
2022-10-18T11:59:32.536Z,1.70
2022-10-18T12:02:45.801Z,2.28
2022-10-18T12:05:30.265Z,2.63
2022-10-18T12:08:35.791Z,2.58
2022-10-18T12:11:15.696Z,2.97
2022-10-18T12:13:57.679Z,3.10
2022-10-18T12:16:50.454Z,3.45
2022-10-18T12:19:33.005Z,3.50
2022-10-18T12:22:35.330Z,3.08
2022-10-18T12:25:04.111Z,2.97
2022-10-18T12:27:46.257Z,2.88
2022-10-18T12:30:57.332Z,2.70
2022-10-18T12:33:36.012Z,2.28
2022-10-18T12:36:21.419Z,2.35
2022-10-18T12:39:03.205Z,2.30
2022-10-18T12:41:36.284Z,2.75
2022-10-18T12:44:18.401Z,2.03
2022-10-18T12:46:49.520Z,2.65
2022-10-18T12:49:42.620Z,2.30
2022-10-18T12:52:28.716Z,1.63
2022-10-18T12:55:26.435Z,1.40
2022-10-18T12:57:53.710Z,2.22
2022-10-18T13:00:30.127Z,2.05
2022-10-18T13:03:12.531Z,2.25
2022-10-18T13:05:54.491Z,2.67
2022-10-18T13:08:31.674Z,2.45
2022-10-18T13:11:01.891Z,2.13
2022-10-18T13:13:40.663Z,2.17
2022-10-18T13:16:31.005Z,2.20
2022-10-18T13:20:25.024Z,2.17
2022-10-18T13:23:25.130Z,2.22
2022-10-18T13:25:58.252Z,2.00
2022-10-18T13:28:48.843Z,2.05
2022-10-18T13:31:28.655Z,2.88
2022-10-18T13:34:17.654Z,2.20
2022-10-18T13:36:56.909Z,2.40
2022-10-18T13:39:25.316Z,2.33
2022-10-18T13:41:58.528Z,2.05
2022-10-18T13:44:40.451Z,2.20
2022-10-18T13:47:07.870Z,2.10
2022-10-18T13:49:59.735Z,2.10
2022-10-18T13:53:00.049Z,2.00
2022-10-18T13:55:50.825Z,1.52
2022-10-18T13:59:14.461Z,1.90
2022-10-18T14:02:42.844Z,1.27
2022-10-18T14:05:25.082Z,1.63
2022-10-18T14:08:08.086Z,1.38
2022-10-18T14:11:03.528Z,1.85
2022-10-18T14:13:45.093Z,1.90
2022-10-18T14:16:34.482Z,1.48
2022-10-18T14:19:30.184Z,1.25
2022-10-18T14:22:11.665Z,1.30
2022-10-18T14:24:46.525Z,1.67
2022-10-18T14:27:26.964Z,1.67
2022-10-18T14:30:08.557Z,1.70
2022-10-18T14:37:54.644Z,1.65
2022-10-18T14:40:34.131Z,1.63
2022-10-18T14:43:14.697Z,1.90
2022-10-18T14:45:42.882Z,1.70
2022-10-18T14:48:17.533Z,1.70
2022-10-18T14:50:49.244Z,1.80
2022-10-18T14:53:25.071Z,2.25
2022-10-18T14:55:56.092Z,1.58
2022-10-18T14:58:23.756Z,1.55
2022-10-18T15:00:51.155Z,1.60
2022-10-18T15:03:19.130Z,2.15
2022-10-18T15:06:00.589Z,1.50
2022-10-18T15:08:42.586Z,2.22
2022-10-18T15:11:14.754Z,1.88
2022-10-18T15:14:14.526Z,1.17
2022-10-18T15:16:42.997Z,1.67
2022-10-18T15:19:16.230Z,1.30
2022-10-18T15:22:27.196Z,1.92
2022-10-18T15:25:20.776Z,1.42
2022-10-18T15:27:53.389Z,1.10
2022-10-18T15:30:40.914Z,1.40
2022-10-18T15:33:21.964Z,1.55
2022-10-18T15:35:51.333Z,1.65
2022-10-18T15:38:32.668Z,1.40
2022-10-18T15:41:00.000Z,1.40
2022-10-18T15:43:27.322Z,1.70
2022-10-18T15:46:05.053Z,1.67
2022-10-18T15:48:45.253Z,1.50
2022-10-18T15:51:48.302Z,1.40
2022-10-18T15:54:19.945Z,1.52
2022-10-18T15:56:47.372Z,1.33
2022-10-18T15:59:25.975Z,1.75
2022-10-18T16:01:54.233Z,1.27
2022-10-18T16:04:31.424Z,1.20
2022-10-18T16:07:00.360Z,1.50
2022-10-18T16:09:29.154Z,1.20
2022-10-18T16:11:58.062Z,1.55
2022-10-18T16:14:26.399Z,1.38
2022-10-18T16:17:00.939Z,1.50
2022-10-18T16:19:29.125Z,1.48
2022-10-18T16:21:56.590Z,1.45
2022-10-18T16:24:24.414Z,1.50
2022-10-18T16:26:53.068Z,1.25
2022-10-18T16:29:28.704Z,1.10
2022-10-18T16:31:58.198Z,1.30
2022-10-18T16:34:27.401Z,1.52
2022-10-18T16:36:55.366Z,1.13
2022-10-18T16:39:23.820Z,1.80
2022-10-18T16:41:51.869Z,1.27
2022-10-18T16:44:19.503Z,1.50
2022-10-18T16:46:51.106Z,1.45
2022-10-18T16:49:25.017Z,1.35
2022-10-18T16:51:54.293Z,1.75
2022-10-18T16:54:23.421Z,1.50
2022-10-18T16:56:51.326Z,1.70
2022-10-18T16:59:26.421Z,1.60
2022-10-18T17:01:53.903Z,1.88
2022-10-18T17:04:21.338Z,1.80
2022-10-18T17:06:49.154Z,1.60
2022-10-18T17:09:16.821Z,1.50
2022-10-18T17:11:45.160Z,1.50
2022-10-18T17:14:12.483Z,1.80
2022-10-18T17:16:39.896Z,1.60
2022-10-18T17:19:11.676Z,1.55
2022-10-18T17:21:39.063Z,1.80
2022-10-18T17:24:06.548Z,1.75
2022-10-18T17:26:36.225Z,1.48
2022-10-18T17:29:08.021Z,1.50
2022-10-18T17:31:35.767Z,1.35
2022-10-18T17:34:04.358Z,1.70
2022-10-18T17:36:33.742Z,1.38
2022-10-18T17:39:01.206Z,1.92
2022-10-18T17:41:28.620Z,2.15
2022-10-18T17:43:56.389Z,1.90
2022-10-18T17:46:23.900Z,1.92
2022-10-18T17:48:51.282Z,2.28
2022-10-18T17:51:18.833Z,2.03
2022-10-18T17:53:46.544Z,1.77
2022-10-18T17:56:15.536Z,2.03
2022-10-18T17:58:43.554Z,1.85
2022-10-18T18:01:13.472Z,1.83
2022-10-18T18:03:41.527Z,1.77
2022-10-18T18:06:45.797Z,2.70
2022-10-18T18:09:16.709Z,2.40
2022-10-18T18:11:47.267Z,2.88
2022-10-18T18:14:16.024Z,2.88
2022-10-18T18:16:46.970Z,3.00
2022-10-18T18:19:17.561Z,3.53
2022-10-18T18:21:45.382Z,3.25
2022-10-18T18:24:13.999Z,3.08
2022-10-18T18:26:41.980Z,2.58
2022-10-18T18:29:12.664Z,3.30
2022-10-18T18:31:43.770Z,3.00
2022-10-18T18:34:11.748Z,3.40
2022-10-18T18:36:39.784Z,3.42
2022-10-18T18:39:09.042Z,3.63
2022-10-18T18:41:37.713Z,3.58
2022-10-18T18:44:06.220Z,4.07
2022-10-18T18:46:38.884Z,4.22
2022-10-18T18:49:07.957Z,3.97
2022-10-18T18:51:40.173Z,3.83
2022-10-18T18:54:10.509Z,4.40
2022-10-18T18:56:38.517Z,3.78
2022-10-18T18:59:07.313Z,3.80
2022-10-18T19:01:37.316Z,3.40
2022-10-18T19:04:07.262Z,3.67
2022-10-18T19:06:38.358Z,3.65
2022-10-18T19:09:18.524Z,3.80
2022-10-18T19:11:48.904Z,3.33
2022-10-18T19:14:16.881Z,3.20
2022-10-18T19:16:53.540Z,3.17
2022-10-18T19:19:24.036Z,2.95
2022-10-18T19:21:55.876Z,3.10
2022-10-18T19:24:25.460Z,3.47
2022-10-18T19:27:08.373Z,3.58
2022-10-18T19:29:39.243Z,3.75
2022-10-18T19:32:12.151Z,3.97
2022-10-18T19:34:40.409Z,4.32
2022-10-18T19:37:09.416Z,4.90
2022-10-18T19:39:37.739Z,4.97
2022-10-18T19:42:17.460Z,4.32
2022-10-18T19:44:48.490Z,4.40
2022-10-18T19:47:15.973Z,3.58
2022-10-18T19:49:43.338Z,3.92
2022-10-18T19:52:12.500Z,3.90
2022-10-18T19:54:39.982Z,3.92
2022-10-18T19:57:07.528Z,3.75
2022-10-18T19:59:35.978Z,4.25
2022-10-18T20:02:04.693Z,4.50
2022-10-18T20:04:34.724Z,4.65
2022-10-18T20:07:03.011Z,4.93
2022-10-18T20:09:30.482Z,5.05
2022-10-18T20:11:57.848Z,5.25
2022-10-18T20:14:25.670Z,5.47
2022-10-18T20:16:53.033Z,4.85
2022-10-18T20:19:20.424Z,6.13
2022-10-18T20:21:47.769Z,5.43
2022-10-18T20:24:22.146Z,5.30
2022-10-18T20:27:42.857Z,5.15
2022-10-18T20:30:56.399Z,5.65
2022-10-18T20:33:56.512Z,4.85
2022-10-18T20:36:25.914Z,5.32
2022-10-18T20:38:53.328Z,4.82
2022-10-18T20:41:48.376Z,4.60
2022-10-18T20:44:19.209Z,4.72
2022-10-18T20:46:46.980Z,4.77
2022-10-18T20:49:16.647Z,4.38
2022-10-18T20:51:44.282Z,4.55
2022-10-18T20:54:12.360Z,4.78
2022-10-18T20:56:39.960Z,5.07
2022-10-18T20:59:09.623Z,5.18
2022-10-18T21:01:39.406Z,5.20
2022-10-18T21:04:10.081Z,4.25
2022-10-18T21:06:41.847Z,4.13
2022-10-18T21:11:43.159Z,4.57
2022-10-18T21:14:21.706Z,4.70
2022-10-18T21:16:51.440Z,4.57
2022-10-18T21:19:25.795Z,5.25
2022-10-18T21:21:57.504Z,5.70
2022-10-18T21:26:54.609Z,5.30
2022-10-18T21:29:24.520Z,4.75
2022-10-18T21:31:59.414Z,6.05
2022-10-18T21:34:26.934Z,4.75
2022-10-18T21:36:54.290Z,5.07
2022-10-18T21:41:55.971Z,5.63
2022-10-18T21:44:23.590Z,5.60
2022-10-18T21:46:51.557Z,6.15
2022-10-18T21:49:19.061Z,5.22
2022-10-18T21:51:46.448Z,6.25
2022-10-18T21:54:16.111Z,4.97
2022-10-18T21:56:44.065Z,4.90
2022-10-18T21:59:14.555Z,4.57
2022-10-18T22:01:43.576Z,4.70
2022-10-18T22:04:24.241Z,5.00
2022-10-18T22:06:52.252Z,5.43
2022-10-18T22:09:21.360Z,4.88
2022-10-18T22:11:53.135Z,4.93
2022-10-18T22:16:48.855Z,4.90
2022-10-18T22:19:16.722Z,4.75
2022-10-18T22:21:44.097Z,5.03
2022-10-18T22:24:11.696Z,4.70
2022-10-18T22:26:42.392Z,5.20
2022-10-18T22:29:17.341Z,4.80
2022-10-18T22:31:52.049Z,4.95
2022-10-18T22:34:29.231Z,5.10
2022-10-18T22:36:57.164Z,5.18
2022-10-18T22:39:24.712Z,4.68
2022-10-18T22:41:55.507Z,4.35
2022-10-18T22:44:23.592Z,4.70
2022-10-18T22:46:50.923Z,4.85
2022-10-18T22:49:18.301Z,4.00
2022-10-18T22:51:45.682Z,4.80
2022-10-18T22:54:13.101Z,4.57
2022-10-18T22:56:40.447Z,4.93
2022-10-18T22:59:07.827Z,5.40
2022-10-18T23:01:35.742Z,5.10
2022-10-18T23:04:03.678Z,5.00
2022-10-18T23:06:35.526Z,4.90
2022-10-18T23:11:35.073Z,3.97
2022-10-18T23:14:05.304Z,4.28
2022-10-18T23:16:33.270Z,3.90
2022-10-18T23:19:00.765Z,4.07
2022-10-18T23:21:29.013Z,4.20
2022-10-18T23:23:57.406Z,4.00
2022-10-18T23:26:27.942Z,4.10
2022-10-18T23:28:56.515Z,4.30
2022-10-18T23:31:31.300Z,3.75
2022-10-18T23:34:04.814Z,3.38
2022-10-18T23:36:33.632Z,3.38
2022-10-18T23:39:03.105Z,3.42
2022-10-18T23:41:30.660Z,3.83
2022-10-18T23:43:58.104Z,3.80
2022-10-18T23:46:25.489Z,3.88
2022-10-18T23:48:52.876Z,3.92
2022-10-18T23:51:20.225Z,3.80
2022-10-18T23:53:48.332Z,3.35
2022-10-18T23:56:16.635Z,3.40
2022-10-18T23:58:45.334Z,3.08
